Time;durP1;ratioP1;P1;durP2;ratioP2;P2;SDS_P1;SDS_P2;PMS_P1;PMS_P2;Temp;Humidity;BMP_temperature;BMP_pressure;BME280_temperature;BME280_humidity;BME280_pressure;Samples;Min_cycle;Max_cycle;Signal;HPM_P1;HPM_P2
2022/06/14 00:01:01;;;;;;;;;;;;;;;;;;5051732;28;941;-73
2022/06/14 00:03:29;;;;;;;;;;;;;;;;;;5051745;28;1989;-72
2022/06/14 00:05:55;;;;;;;;;;;;;;;;;;5051706;28;1060;-73
2022/06/14 00:08:22;;;;;;;;;;;;;;;;;;5059565;28;2165;-73
2022/06/14 00:10:48;;;;;;;;;;;;;;;;;;5068084;28;1743;-73
2022/06/14 00:13:15;;;;;;;;;;;;;;;;;;5071190;28;1072;-73
2022/06/14 00:15:44;;;;;;;;;;;;;;;;;;5071386;28;946;-73
2022/06/14 00:18:10;;;;;;;;;;;;;;;;;;5070917;28;1379;-73
2022/06/14 00:20:36;;;;;;;;;;;;;;;;;;5071399;28;929;-73
2022/06/14 00:23:02;;;;;;;;;;;;;;;;;;5070916;28;1977;-73
2022/06/14 00:25:29;;;;;;;;;;;;;;;;;;5071145;28;1060;-74
2022/06/14 00:27:56;;;;;;;;;;;;;;;;;;5070765;28;1409;-74
2022/06/14 00:30:22;;;;;;;;;;;;;;;;;;5071109;28;1036;-73
2022/06/14 00:32:50;;;;;;;;;;;;;;;;;;5052998;28;1227;-74
2022/06/14 00:35:16;;;;;;;;;;;;;;;;;;5071302;28;853;-74
2022/06/14 00:37:42;;;;;;;;;;;;;;;;;;5070955;28;1370;-74
2022/06/14 00:40:09;;;;;;;;;;;;;;;;;;5070971;28;1063;-74
2022/06/14 00:42:36;;;;;;;;;;;;;;;;;;5071083;28;1965;-73
2022/06/14 00:45:03;;;;;;;;;;;;;;;;;;5052942;28;1329;-73
2022/06/14 00:47:30;;;;;;;;;;;;;;;;;;5070658;28;1308;-75
2022/06/14 00:49:59;;;;;;;;;;;;;;;;;;5069581;28;2017;-73
2022/06/14 00:52:27;;;;;;;;;;;;;;;;;;5048437;28;1895;-73
2022/06/14 00:54:54;;;;;;;;;;;;;;;;;;5070855;28;1105;-72
2022/06/14 00:57:22;;;;;;;;;;;;;;;;;;5070292;28;1411;-73
2022/06/14 00:59:48;;;;;;;;;;;;;;;;;;5070927;28;921;-73
2022/06/14 01:02:16;;;;;;;;;;;;;;;;;;5070518;28;1981;-73
2022/06/14 01:04:42;;;;;;;;;;;;;;;;;;5070929;28;1067;-73
2022/06/14 01:07:11;;;;;;;;;;;;;;;;;;5070430;28;1325;-72
2022/06/14 01:09:39;;;;;;;;;;;;;;;;;;5052832;28;1168;-74
2022/06/14 01:12:06;;;;;;;;;;;;;;;;;;5070634;28;684;-74
2022/06/14 01:14:34;;;;;;;;;;;;;;;;;;5070663;28;810;-73
2022/06/14 01:17:00;;;;;;;;;;;;;;;;;;5052071;28;1453;-74
2022/06/14 01:19:27;;;;;;;;;;;;;;;;;;5070724;28;1055;-73
2022/06/14 01:21:55;;;;;;;;;;;;;;;;;;5070408;28;1926;-73
2022/06/14 01:24:21;;;;;;;;;;;;;;;;;;5070737;28;1079;-74
2022/06/14 01:26:48;;;;;;;;;;;;;;;;;;5052184;28;1309;-73
2022/06/14 01:29:14;;;;;;;;;;;;;;;;;;5072702;28;1130;-73
2022/06/14 01:31:40;;;;;;;;;;;;;;;;;;5055042;28;1530;-73
2022/06/14 01:34:07;;;;;;;;;;;;;;;;;;5054803;28;1511;-73
2022/06/14 01:36:34;;;;;;;;;;;;;;;;;;5054521;28;1329;-74
2022/06/14 01:39:03;;;;;;;;;;;;;;;;;;5054273;28;886;-73
2022/06/14 01:41:31;;;;;;;;;;;;;;;;;;5054433;28;997;-73
2022/06/14 01:44:09;;;;;;;;;;;;;;;;;;5054101;28;1971;-73
2022/06/14 01:46:37;;;;;;;;;;;;;;;;;;5054019;28;1400;-71
2022/06/14 01:51:54;;;;;;;;;;;;;;;;;;5053460;28;886;-73
2022/06/14 01:54:23;;;;;;;;;;;;;;;;;;5054315;28;965;-74
2022/06/14 01:56:50;;;;;;;;;;;;;;;;;;5035772;28;1291;-73
2022/06/14 01:59:18;;;;;;;;;;;;;;;;;;5054106;28;827;-73
2022/06/14 02:01:46;;;;;;;;;;;;;;;;;;5054094;28;1075;-73
2022/06/14 02:07:00;;;;;;;;;;;;;;;;;;5035713;28;1415;-74
2022/06/14 02:09:30;;;;;;;;;;;;;;;;;;5053936;28;1067;-73
2022/06/14 02:11:56;;;;;;;;;;;;;;;;;;5053673;28;1166;-72
2022/06/14 02:14:24;;;;;;;;;;;;;;;;;;5053712;28;988;-73
2022/06/14 02:16:52;;;;;;;;;;;;;;;;;;5053680;28;1314;-73
2022/06/14 02:19:19;;;;;;;;;;;;;;;;;;5054038;28;1035;-73
2022/06/14 02:21:45;;;;;;;;;;;;;;;;;;5053854;28;1063;-74
2022/06/14 02:24:14;;;;;;;;;;;;;;;;;;5053843;28;1914;-71
2022/06/14 02:26:42;;;;;;;;;;;;;;;;;;5053360;28;1399;-73
2022/06/14 02:29:09;;;;;;;;;;;;;;;;;;5060572;28;1122;-74
2022/06/14 02:31:36;;;;;;;;;;;;;;;;;;5062736;28;1084;-74
2022/06/14 02:34:03;;;;;;;;;;;;;;;;;;5056933;28;985;-74
2022/06/14 02:36:30;;;;;;;;;;;;;;;;;;5053191;28;1119;-74
2022/06/14 02:38:57;;;;;;;;;;;;;;;;;;5047956;28;2057;-72
2022/06/14 02:41:25;;;;;;;;;;;;;;;;;;5071542;28;1097;-73
2022/06/14 02:43:54;;;;;;;;;;;;;;;;;;5045425;28;1926;-73
2022/06/14 02:46:21;;;;;;;;;;;;;;;;;;5070578;28;1224;-73
2022/06/14 02:48:48;;;;;;;;;;;;;;;;;;5073031;28;1380;-74
2022/06/14 02:51:15;;;;;;;;;;;;;;;;;;5073110;28;1068;-74
2022/06/14 02:53:43;;;;;;;;;;;;;;;;;;5072840;28;1067;-74
2022/06/14 02:56:09;;;;;;;;;;;;;;;;;;5072690;28;1071;-72
2022/06/14 02:58:38;;;;;;;;;;;;;;;;;;5073117;28;1305;-73
2022/06/14 03:01:07;;;;;;;;;;;;;;;;;;5073049;28;1109;-73
2022/06/14 03:03:38;;;;;;;;;;;;;;;;;;5072812;28;1918;-73
2022/06/14 03:06:06;;;;;;;;;;;;;;;;;;5083472;22;3543;-69
2022/06/14 03:08:34;;;;;;;;;;;;;;;;;;5072271;28;1126;-71
2022/06/14 03:11:02;;;;;;;;;;;;;;;;;;5072794;28;1051;-71
2022/06/14 03:13:30;;;;;;;;;;;;;;;;;;5072697;28;1056;-71
2022/06/14 03:15:58;;;;;;;;;;;;;;;;;;5071091;28;1395;-70
2022/06/14 03:18:28;;;;;;;;;;;;;;;;;;5072530;28;798;-70
2022/06/14 03:20:56;;;;;;;;;;;;;;;;;;5072516;28;988;-72
2022/06/14 03:23:24;;;;;;;;;;;;;;;;;;5072158;28;1914;-71
2022/06/14 03:25:52;;;;;;;;;;;;;;;;;;5072114;28;1304;-70
2022/06/14 03:28:20;;;;;;;;;;;;;;;;;;5072320;28;1059;-71
2022/06/14 03:30:47;;;;;;;;;;;;;;;;;;5072323;28;763;-71
2022/06/14 03:33:16;;;;;;;;;;;;;;;;;;5072301;28;936;-71
2022/06/14 03:35:47;;;;;;;;;;;;;;;;;;5072095;28;1393;-71
2022/06/14 03:38:14;;;;;;;;;;;;;;;;;;5072002;28;1016;-71
2022/06/14 03:40:41;;;;;;;;;;;;;;;;;;5072583;28;877;-71
2022/06/14 03:43:07;;;;;;;;;;;;;;;;;;5072180;28;1916;-71
2022/06/14 03:45:34;;;;;;;;;;;;;;;;;;5071911;28;1305;-69
2022/06/14 03:48:02;;;;;;;;;;;;;;;;;;5069497;28;1313;-71
2022/06/14 03:50:31;;;;;;;;;;;;;;;;;;5081694;28;1364;-72
2022/06/14 03:53:05;;;;;;;;;;;;;;;;;;5077281;28;1293;-71
2022/06/14 03:55:37;;;;;;;;;;;;;;;;;;5076607;28;1391;-71
2022/06/14 03:58:06;;;;;;;;;;;;;;;;;;5091821;28;1122;-72
2022/06/14 04:00:33;;;;;;;;;;;;;;;;;;5074092;28;1346;-71
2022/06/14 04:03:12;;;;;;;;;;;;;;;;;;5066344;28;1954;-71
2022/06/14 04:05:51;;;;;;;;;;;;;;;;;;5077688;28;1424;-71
2022/06/14 04:08:21;;;;;;;;;;;;;;;;;;5054157;28;1380;-72
2022/06/14 04:10:48;;;;;;;;;;;;;;;;;;5079960;28;1184;-72
2022/06/14 04:13:15;;;;;;;;;;;;;;;;;;5067718;28;1444;-72
2022/06/14 04:15:43;;;;;;;;;;;;;;;;;;5078838;28;1444;-72
2022/06/14 04:20:51;;;;;;;;;;;;;;;;;;5091310;28;1238;-71
2022/06/14 04:23:19;;;;;;;;;;;;;;;;;;5074283;28;2526;-71
2022/06/14 04:25:49;;;;;;;;;;;;;;;;;;5072221;28;1443;-71
2022/06/14 04:28:18;;;;;;;;;;;;;;;;;;5074124;28;1571;-71
2022/06/14 04:30:46;;;;;;;;;;;;;;;;;;5079331;28;1429;-71
2022/06/14 04:33:13;;;;;;;;;;;;;;;;;;5078321;28;1424;-70
2022/06/14 04:35:41;;;;;;;;;;;;;;;;;;5086418;28;1388;-71
2022/06/14 04:38:08;;;;;;;;;;;;;;;;;;5082011;28;1440;-71
2022/06/14 04:40:35;;;;;;;;;;;;;;;;;;5080149;28;1392;-71
2022/06/14 04:43:04;;;;;;;;;;;;;;;;;;5076405;28;1926;-72
2022/06/14 04:45:32;;;;;;;;;;;;;;;;;;5087621;28;1558;-71
2022/06/14 04:47:59;;;;;;;;;;;;;;;;;;5077497;28;1516;-71
2022/06/14 04:50:27;;;;;;;;;;;;;;;;;;5077266;28;1440;-72
2022/06/14 04:52:54;;;;;;;;;;;;;;;;;;5078513;28;1479;-71
2022/06/14 04:55:21;;;;;;;;;;;;;;;;;;5073931;28;1472;-72
2022/06/14 04:57:48;;;;;;;;;;;;;;;;;;5076047;28;1381;-72
2022/06/14 05:00:17;;;;;;;;;;;;;;;;;;5063651;28;1389;-71
2022/06/14 05:02:44;;;;;;;;;;;;;;;;;;5077791;28;1140;-72
2022/06/14 05:05:11;;;;;;;;;;;;;;;;;;5061142;28;1926;-72
2022/06/14 05:07:38;;;;;;;;;;;;;;;;;;5059457;28;1382;-72
2022/06/14 05:10:05;;;;;;;;;;;;;;;;;;5060361;28;1321;-72
2022/06/14 05:12:35;;;;;;;;;;;;;;;;;;5050946;28;1037;-72
2022/06/14 05:15:02;;;;;;;;;;;;;;;;;;5050669;28;1316;-72
2022/06/14 05:17:30;;;;;;;;;;;;;;;;;;5050847;28;984;-72
2022/06/14 05:19:58;;;;;;;;;;;;;;;;;;5053313;28;1539;-72
2022/06/14 05:22:25;;;;;;;;;;;;;;;;;;5070612;28;1478;-71
2022/06/14 05:24:51;;;;;;;;;;;;;;;;;;5070793;28;1973;-72
2022/06/14 05:27:22;;;;;;;;;;;;;;;;;;5073484;28;1698;-72
2022/06/14 05:29:50;;;;;;;;;;;;;;;;;;5087600;28;1124;-71
2022/06/14 05:32:19;;;;;;;;;;;;;;;;;;5090559;28;1340;-72
2022/06/14 05:34:48;;;;;;;;;;;;;;;;;;5090426;28;1388;-71
2022/06/14 05:37:15;;;;;;;;;;;;;;;;;;5090461;28;949;-71
2022/06/14 05:39:43;;;;;;;;;;;;;;;;;;5090555;28;1142;-71
2022/06/14 05:42:10;;;;;;;;;;;;;;;;;;5090458;28;1063;-73
2022/06/14 05:44:38;;;;;;;;;;;;;;;;;;5090417;28;1918;-72
2022/06/14 05:47:04;;;;;;;;;;;;;;;;;;5090351;28;968;-72
2022/06/14 05:49:31;;;;;;;;;;;;;;;;;;5089191;28;1305;-71
2022/06/14 05:52:02;;;;;;;;;;;;;;;;;;5090352;28;2171;-72
2022/06/14 05:54:30;;;;;;;;;;;;;;;;;;5088948;28;1509;-72
2022/06/14 05:56:58;;;;;;;;;;;;;;;;;;5090166;28;1119;-72
2022/06/14 05:59:28;;;;;;;;;;;;;;;;;;5090617;28;965;-72
2022/06/14 06:01:56;;;;;;;;;;;;;;;;;;5090366;28;1122;-71
2022/06/14 06:04:23;;;;;;;;;;;;;;;;;;5090349;28;1975;-71
2022/06/14 06:06:49;;;;;;;;;;;;;;;;;;5089959;28;1055;-72
2022/06/14 06:09:18;;;;;;;;;;;;;;;;;;5090493;28;1123;-72
2022/06/14 06:11:45;;;;;;;;;;;;;;;;;;5090349;28;774;-72
2022/06/14 06:14:12;;;;;;;;;;;;;;;;;;5090711;28;1063;-72
2022/06/14 06:16:38;;;;;;;;;;;;;;;;;;5093742;28;1347;-72
2022/06/14 06:19:05;;;;;;;;;;;;;;;;;;5092596;28;1079;-73
2022/06/14 06:21:34;;;;;;;;;;;;;;;;;;5093022;28;1258;-73
2022/06/14 06:24:01;;;;;;;;;;;;;;;;;;5093506;28;1918;-73
2022/06/14 06:26:29;;;;;;;;;;;;;;;;;;5093695;28;1378;-73
2022/06/14 06:28:57;;;;;;;;;;;;;;;;;;5092054;28;1158;-72
2022/06/14 06:31:24;;;;;;;;;;;;;;;;;;5071476;28;1068;-72
2022/06/14 06:33:51;;;;;;;;;;;;;;;;;;5072786;28;1106;-73
2022/06/14 06:36:21;;;;;;;;;;;;;;;;;;5072666;28;1297;-74
2022/06/14 06:38:51;;;;;;;;;;;;;;;;;;5073517;28;1052;-73
2022/06/14 06:44:03;;;;;;;;;;;;;;;;;;5073073;28;1998;-73
2022/06/14 06:46:31;;;;;;;;;;;;;;;;;;5072570;28;1308;-73
2022/06/14 06:48:59;;;;;;;;;;;;;;;;;;5070612;28;1079;-74
2022/06/14 06:51:25;;;;;;;;;;;;;;;;;;5077319;28;1100;-74
2022/06/14 06:53:54;;;;;;;;;;;;;;;;;;5079633;28;1074;-73
2022/06/14 06:56:20;;;;;;;;;;;;;;;;;;5070923;28;1417;-73
2022/06/14 06:58:48;;;;;;;;;;;;;;;;;;5072534;28;1071;-73
2022/06/14 07:01:19;;;;;;;;;;;;;;;;;;5072089;28;878;-73
2022/06/14 07:03:46;;;;;;;;;;;;;;;;;;5072422;28;1926;-73
2022/06/14 07:06:13;;;;;;;;;;;;;;;;;;5071881;28;1483;-73
2022/06/14 07:08:41;;;;;;;;;;;;;;;;;;5072425;28;1000;-73
2022/06/14 07:11:07;;;;;;;;;;;;;;;;;;5071997;28;952;-73
2022/06/14 07:13:36;;;;;;;;;;;;;;;;;;5072269;28;960;-73
2022/06/14 07:16:05;;;;;;;;;;;;;;;;;;5071959;28;1293;-72
2022/06/14 07:18:34;;;;;;;;;;;;;;;;;;5071818;28;1601;-73
2022/06/14 07:21:01;;;;;;;;;;;;;;;;;;5072027;28;1079;-74
2022/06/14 07:23:33;;;;;;;;;;;;;;;;;;5072324;28;1108;-74
2022/06/14 07:26:02;;;;;;;;;;;;;;;;;;5069639;28;1921;-75
2022/06/14 07:28:30;;;;;;;;;;;;;;;;;;5071749;28;1058;-73
2022/06/14 07:30:57;;;;;;;;;;;;;;;;;;5071582;28;1076;-73
2022/06/14 07:33:24;;;;;;;;;;;;;;;;;;5070798;28;1458;-73
2022/06/14 07:35:52;;;;;;;;;;;;;;;;;;5071822;28;1304;-73
2022/06/14 07:38:20;;;;;;;;;;;;;;;;;;5071509;28;936;-73
2022/06/14 07:40:47;;;;;;;;;;;;;;;;;;5071314;28;941;-73
2022/06/14 07:43:16;;;;;;;;;;;;;;;;;;5071639;28;842;-72
2022/06/14 07:45:43;;;;;;;;;;;;;;;;;;5070075;28;1969;-72
2022/06/14 07:48:10;;;;;;;;;;;;;;;;;;5071489;28;972;-71
2022/06/14 07:50:37;;;;;;;;;;;;;;;;;;5071516;28;997;-73
2022/06/14 07:53:08;;;;;;;;;;;;;;;;;;5071387;28;794;-73
2022/06/14 07:55:35;;;;;;;;;;;;;;;;;;5071397;28;1407;-73
2022/06/14 07:58:02;;;;;;;;;;;;;;;;;;5071012;28;999;-73
2022/06/14 08:03:12;;;;;;;;;;;;;;;;;;5079288;28;1122;-72
2022/06/14 08:05:40;;;;;;;;;;;;;;;;;;5086170;28;1917;-73
2022/06/14 08:08:08;;;;;;;;;;;;;;;;;;5089896;28;1175;-73
2022/06/14 08:10:37;;;;;;;;;;;;;;;;;;5091065;28;1063;-73
2022/06/14 08:13:04;;;;;;;;;;;;;;;;;;5089448;28;1067;-73
2022/06/14 08:15:31;;;;;;;;;;;;;;;;;;5091340;28;1400;-73
2022/06/14 08:17:59;;;;;;;;;;;;;;;;;;5090966;28;1072;-73
2022/06/14 08:20:27;;;;;;;;;;;;;;;;;;5091469;28;953;-72
2022/06/14 08:22:54;;;;;;;;;;;;;;;;;;5090925;28;897;-72
2022/06/14 08:25:22;;;;;;;;;;;;;;;;;;5091164;28;1918;-72
2022/06/14 08:27:51;;;;;;;;;;;;;;;;;;5089212;28;1155;-72
2022/06/14 08:30:18;;;;;;;;;;;;;;;;;;5091077;28;1035;-72
2022/06/14 08:32:45;;;;;;;;;;;;;;;;;;5090630;28;842;-72
2022/06/14 08:35:13;;;;;;;;;;;;;;;;;;5090838;28;1412;-72
2022/06/14 08:37:41;;;;;;;;;;;;;;;;;;5090685;28;827;-71
2022/06/14 08:40:12;;;;;;;;;;;;;;;;;;5090930;28;885;-72
2022/06/14 08:42:40;;;;;;;;;;;;;;;;;;5079615;28;1781;-72
2022/06/14 08:45:07;;;;;;;;;;;;;;;;;;5072847;28;1922;-71
2022/06/14 08:47:37;;;;;;;;;;;;;;;;;;5078568;28;1152;-72
2022/06/14 08:50:08;;;;;;;;;;;;;;;;;;5089140;28;1113;-72
2022/06/14 08:52:52;;;;;;;;;;;;;;;;;;5089464;28;671;-72
2022/06/14 08:55:24;;;;;;;;;;;;;;;;;;5090642;28;1317;-73
2022/06/14 08:57:57;;;;;;;;;;;;;;;;;;5090169;28;1023;-72
2022/06/14 09:00:32;;;;;;;;;;;;;;;;;;5090363;28;889;-73
2022/06/14 09:03:11;;;;;;;;;;;;;;;;;;5090343;28;841;-72
2022/06/14 09:05:40;;;;;;;;;;;;;;;;;;5090236;28;1914;-73
2022/06/14 09:08:25;;;;;;;;;;;;;;;;;;5077941;22;3641;-72
2022/06/14 09:11:06;;;;;;;;;;;;;;;;;;5049113;28;1058;-74
2022/06/14 09:13:45;;;;;;;;;;;;;;;;;;5046975;28;1475;-72
2022/06/14 09:16:15;;;;;;;;;;;;;;;;;;5050140;28;972;-72
2022/06/14 09:18:47;;;;;;;;;;;;;;;;;;5050253;28;1320;-70
2022/06/14 09:21:16;;;;;;;;;;;;;;;;;;5050044;28;1084;-71
2022/06/14 09:23:46;;;;;;;;;;;;;;;;;;5049920;28;1263;-73
2022/06/14 09:26:29;;;;;;;;;;;;;;;;;;5049758;28;1969;-75
2022/06/14 09:29:13;;;;;;;;;;;;;;;;;;5050721;28;1406;-74
2022/06/14 09:31:44;;;;;;;;;;;;;;;;;;5043040;28;2763;-74
2022/06/14 09:34:21;;;;;;;;;;;;;;;;;;5048694;28;1092;-73
2022/06/14 09:36:53;;;;;;;;;;;;;;;;;;5049656;28;1106;-73
2022/06/14 09:39:30;;;;;;;;;;;;;;;;;;5049827;28;1401;-74
2022/06/14 09:42:14;;;;;;;;;;;;;;;;;;5048387;28;1044;-73
2022/06/14 09:44:56;;;;;;;;;;;;;;;;;;5029518;28;1906;-74
2022/06/14 09:47:30;;;;;;;;;;;;;;;;;;5030007;28;1421;-74
2022/06/14 09:50:08;;;;;;;;;;;;;;;;;;5030416;28;1136;-74
2022/06/14 09:53:04;;;;;;;;;;;;;;;;;;5033604;28;976;-75
2022/06/14 09:55:34;;;;;;;;;;;;;;;;;;4991083;28;2649;-73
2022/06/14 09:58:05;;;;;;;;;;;;;;;;;;5024596;28;1790;-74
2022/06/14 10:00:32;;;;;;;;;;;;;;;;;;5033651;28;1062;-74
2022/06/14 10:03:17;;;;;;;;;;;;;;;;;;5033897;28;1044;-73
2022/06/14 10:05:50;;;;;;;;;;;;;;;;;;5033315;28;1973;-74
2022/06/14 10:08:28;;;;;;;;;;;;;;;;;;5033307;28;1392;-73
2022/06/14 10:11:02;;;;;;;;;;;;;;;;;;5032156;28;1056;-72
2022/06/14 10:13:50;;;;;;;;;;;;;;;;;;5033697;28;1127;-73
2022/06/14 10:16:19;;;;;;;;;;;;;;;;;;5029869;28;1129;-75
2022/06/14 10:18:56;;;;;;;;;;;;;;;;;;5033566;28;1426;-72
2022/06/14 10:21:25;;;;;;;;;;;;;;;;;;5033351;28;771;-73
2022/06/14 10:23:57;;;;;;;;;;;;;;;;;;5033518;28;1080;-73
2022/06/14 10:29:14;;;;;;;;;;;;;;;;;;5033821;28;1318;-75
2022/06/14 10:31:44;;;;;;;;;;;;;;;;;;5032964;28;957;-73
2022/06/14 10:34:12;;;;;;;;;;;;;;;;;;5031211;28;2222;-73
2022/06/14 10:36:44;;;;;;;;;;;;;;;;;;5031368;28;1975;-75
2022/06/14 10:39:15;;;;;;;;;;;;;;;;;;5037279;28;1895;-74
2022/06/14 10:41:42;;;;;;;;;;;;;;;;;;5032651;28;1107;-74
2022/06/14 10:44:12;;;;;;;;;;;;;;;;;;5032933;28;1119;-72
2022/06/14 10:46:43;;;;;;;;;;;;;;;;;;5032696;28;1973;-74
2022/06/14 10:49:21;;;;;;;;;;;;;;;;;;5032866;28;1384;-74
2022/06/14 10:51:55;;;;;;;;;;;;;;;;;;5032621;28;1001;-74
2022/06/14 10:54:24;;;;;;;;;;;;;;;;;;5033181;28;949;-73
2022/06/14 10:56:53;;;;;;;;;;;;;;;;;;5032347;28;1128;-74
2022/06/14 10:59:26;;;;;;;;;;;;;;;;;;5031322;28;1410;-73
2022/06/14 11:01:54;;;;;;;;;;;;;;;;;;5031389;28;798;-74
2022/06/14 11:04:22;;;;;;;;;;;;;;;;;;5032797;28;897;-72
2022/06/14 11:06:54;;;;;;;;;;;;;;;;;;5032146;28;1918;-74
2022/06/14 11:09:23;;;;;;;;;;;;;;;;;;5032263;28;1335;-72
2022/06/14 11:11:55;;;;;;;;;;;;;;;;;;5030780;28;1108;-76
2022/06/14 11:14:23;;;;;;;;;;;;;;;;;;5032242;28;1080;-73
2022/06/14 11:16:58;;;;;;;;;;;;;;;;;;5047392;28;1542;-73
2022/06/14 11:19:31;;;;;;;;;;;;;;;;;;5052202;28;1290;-73
2022/06/14 11:22:05;;;;;;;;;;;;;;;;;;5050736;28;1243;-73
2022/06/14 11:24:34;;;;;;;;;;;;;;;;;;5052147;28;950;-73
2022/06/14 11:27:01;;;;;;;;;;;;;;;;;;5051718;28;1894;-72
2022/06/14 11:29:29;;;;;;;;;;;;;;;;;;5051938;28;1317;-74
2022/06/14 11:31:57;;;;;;;;;;;;;;;;;;5051724;28;901;-74
2022/06/14 11:34:31;;;;;;;;;;;;;;;;;;5052147;28;930;-73
2022/06/14 11:37:02;;;;;;;;;;;;;;;;;;5051273;28;1288;-73
2022/06/14 11:39:32;;;;;;;;;;;;;;;;;;5051063;28;1460;-73
2022/06/14 11:42:00;;;;;;;;;;;;;;;;;;5052171;28;782;-73
2022/06/14 11:44:30;;;;;;;;;;;;;;;;;;5051766;28;1071;-74
2022/06/14 11:46:58;;;;;;;;;;;;;;;;;;5051481;28;1914;-73
2022/06/14 11:49:27;;;;;;;;;;;;;;;;;;5050278;28;1369;-72
2022/06/14 11:51:54;;;;;;;;;;;;;;;;;;5051630;28;870;-72
2022/06/14 11:54:23;;;;;;;;;;;;;;;;;;5051597;28;878;-72
2022/06/14 11:56:54;;;;;;;;;;;;;;;;;;5050982;28;1056;-73
2022/06/14 11:59:26;;;;;;;;;;;;;;;;;;5051391;28;1383;-72
2022/06/14 12:01:56;;;;;;;;;;;;;;;;;;5050883;28;1074;-73
2022/06/14 12:04:26;;;;;;;;;;;;;;;;;;5051385;28;1063;-73
2022/06/14 12:06:53;;;;;;;;;;;;;;;;;;5050771;28;1982;-73
2022/06/14 12:09:32;;;;;;;;;;;;;;;;;;5050474;28;1402;-73
2022/06/14 12:12:00;;;;;;;;;;;;;;;;;;5049952;28;1088;-74
2022/06/14 12:14:31;;;;;;;;;;;;;;;;;;5050410;28;1321;-74
2022/06/14 12:16:58;;;;;;;;;;;;;;;;;;5049815;28;1076;-73
2022/06/14 12:19:27;;;;;;;;;;;;;;;;;;5050276;28;1302;-74
2022/06/14 12:21:57;;;;;;;;;;;;;;;;;;5031503;28;1998;-72
2022/06/14 12:26:34;;;;;;;;;;;;;;;;;;5034155;28;2058;-73
2022/06/14 12:27:13;;;;;;;;;;;;;;;;;;5049601;28;1989;-73
2022/06/14 12:29:40;;;;;;;;;;;;;;;;;;5049644;28;1289;-72
2022/06/14 12:32:09;;;;;;;;;;;;;;;;;;5049994;28;795;-73
2022/06/14 12:34:36;;;;;;;;;;;;;;;;;;5049976;28;1103;-74
2022/06/14 12:37:09;;;;;;;;;;;;;;;;;;5049617;28;1080;-74
2022/06/14 12:39:37;;;;;;;;;;;;;;;;;;5048226;28;1410;-72
2022/06/14 12:42:04;;;;;;;;;;;;;;;;;;5049781;28;1064;-73
2022/06/14 12:44:35;;;;;;;;;;;;;;;;;;5049902;28;1120;-73
2022/06/14 12:47:02;;;;;;;;;;;;;;;;;;5049714;28;1989;-73
2022/06/14 12:49:29;;;;;;;;;;;;;;;;;;5049951;28;1393;-73
2022/06/14 12:51:57;;;;;;;;;;;;;;;;;;5049532;28;901;-73
2022/06/14 12:54:26;;;;;;;;;;;;;;;;;;5049789;28;1131;-74
2022/06/14 12:56:54;;;;;;;;;;;;;;;;;;5049277;28;945;-72
2022/06/14 12:59:23;;;;;;;;;;;;;;;;;;5048339;28;1425;-74
2022/06/14 13:01:51;;;;;;;;;;;;;;;;;;5036666;28;2054;-75
2022/06/14 13:04:18;;;;;;;;;;;;;;;;;;5028521;28;1346;-73
2022/06/14 13:06:53;;;;;;;;;;;;;;;;;;5028333;28;2030;-74
2022/06/14 13:09:21;;;;;;;;;;;;;;;;;;4997150;28;985585;-73
2022/06/14 13:11:49;;;;;;;;;;;;;;;;;;5030269;28;1072;-73
2022/06/14 13:14:16;;;;;;;;;;;;;;;;;;5030380;28;819;-73
2022/06/14 13:16:45;;;;;;;;;;;;;;;;;;5029998;28;1052;-73
2022/06/14 13:19:14;;;;;;;;;;;;;;;;;;5030204;28;1363;-72
2022/06/14 13:21:45;;;;;;;;;;;;;;;;;;5029792;28;949;-74
2022/06/14 13:24:14;;;;;;;;;;;;;;;;;;5029713;28;1136;-73
2022/06/14 13:26:44;;;;;;;;;;;;;;;;;;5028461;28;1938;-73
2022/06/14 13:29:20;;;;;;;;;;;;;;;;;;5030386;28;1326;-73
2022/06/14 13:31:52;;;;;;;;;;;;;;;;;;5029930;28;1099;-75
2022/06/14 13:34:25;;;;;;;;;;;;;;;;;;5028275;28;2024;-73
2022/06/14 13:36:52;;;;;;;;;;;;;;;;;;5027853;28;2089;-75
2022/06/14 13:39:21;;;;;;;;;;;;;;;;;;5027646;28;2045;-75
2022/06/14 13:42:01;;;;;;;;;;;;;;;;;;5028242;28;1680;-72
2022/06/14 13:44:28;;;;;;;;;;;;;;;;;;5030189;28;1047;-74
2022/06/14 13:46:57;;;;;;;;;;;;;;;;;;5029665;28;1968;-74
2022/06/14 13:49:27;;;;;;;;;;;;;;;;;;5030104;28;1406;-73
2022/06/14 13:51:56;;;;;;;;;;;;;;;;;;5029559;28;1083;-72
2022/06/14 13:54:23;;;;;;;;;;;;;;;;;;5030060;28;945;-73
2022/06/14 13:56:51;;;;;;;;;;;;;;;;;;5029458;28;758;-73
2022/06/14 13:59:18;;;;;;;;;;;;;;;;;;5028584;28;1394;-74
2022/06/14 14:01:47;;;;;;;;;;;;;;;;;;5029809;28;1131;-74
2022/06/14 14:04:16;;;;;;;;;;;;;;;;;;5030019;28;996;-73
2022/06/14 14:06:45;;;;;;;;;;;;;;;;;;5029634;28;1973;-73
2022/06/14 14:09:23;;;;;;;;;;;;;;;;;;5029724;28;1311;-74
2022/06/14 14:11:53;;;;;;;;;;;;;;;;;;5029671;28;646;-74
2022/06/14 14:14:22;;;;;;;;;;;;;;;;;;5029910;28;1118;-74
2022/06/14 14:16:51;;;;;;;;;;;;;;;;;;5029629;28;910;-74
2022/06/14 14:19:19;;;;;;;;;;;;;;;;;;5029962;28;1378;-71
2022/06/14 14:21:47;;;;;;;;;;;;;;;;;;5029496;28;1052;-75
2022/06/14 14:24:18;;;;;;;;;;;;;;;;;;5029972;28;787;-74
2022/06/14 14:26:45;;;;;;;;;;;;;;;;;;5029336;28;1965;-74
2022/06/14 14:29:12;;;;;;;;;;;;;;;;;;5029644;28;1350;-74
2022/06/14 14:31:39;;;;;;;;;;;;;;;;;;5028929;28;1641;-75
2022/06/14 14:34:07;;;;;;;;;;;;;;;;;;5029706;28;1091;-74
2022/06/14 14:36:40;;;;;;;;;;;;;;;;;;5034209;28;1128;-74
2022/06/14 14:39:09;;;;;;;;;;;;;;;;;;5052668;28;1445;-74
2022/06/14 14:41:40;;;;;;;;;;;;;;;;;;5054363;28;1115;-74
2022/06/14 14:44:09;;;;;;;;;;;;;;;;;;5055080;28;960;-75
2022/06/14 14:46:35;;;;;;;;;;;;;;;;;;5041481;28;1978;-74
2022/06/14 14:49:03;;;;;;;;;;;;;;;;;;5028667;28;2057;-72
2022/06/14 14:51:32;;;;;;;;;;;;;;;;;;5037096;28;2045;-74
2022/06/14 14:54:02;;;;;;;;;;;;;;;;;;5052580;28;1089;-75
2022/06/14 14:56:31;;;;;;;;;;;;;;;;;;5052345;28;891;-75
2022/06/14 14:58:58;;;;;;;;;;;;;;;;;;5052423;28;1308;-75
2022/06/14 15:07:02;;;;;;;;;;;;;;;;;;5019511;28;1918;-75
2022/06/14 15:09:29;;;;;;;;;;;;;;;;;;5030432;28;1758;-75
2022/06/14 15:11:57;;;;;;;;;;;;;;;;;;5050035;28;1499;-74
2022/06/14 15:14:25;;;;;;;;;;;;;;;;;;5031241;28;1036;-76
2022/06/14 15:19:53;;;;;;;;;;;;;;;;;;5031841;28;1092;-75
2022/06/14 15:19:56;;;;;;;;;;;;;;;;;;5050719;23;4292;-72
2022/06/14 15:22:22;;;;;;;;;;;;;;;;;;5033190;28;1370;-74
2022/06/14 15:24:49;;;;;;;;;;;;;;;;;;5051948;28;778;-74
2022/06/14 15:27:17;;;;;;;;;;;;;;;;;;5051266;28;1914;-73
2022/06/14 15:29:47;;;;;;;;;;;;;;;;;;5051617;28;1293;-74
2022/06/14 15:32:17;;;;;;;;;;;;;;;;;;5033126;28;1321;-75
2022/06/14 15:34:44;;;;;;;;;;;;;;;;;;5051586;28;882;-74
2022/06/14 15:37:19;;;;;;;;;;;;;;;;;;5033462;28;1108;-72
2022/06/14 15:39:49;;;;;;;;;;;;;;;;;;5051089;28;1408;-72
2022/06/14 15:42:24;;;;;;;;;;;;;;;;;;5050640;28;862;-73
2022/06/14 15:44:50;;;;;;;;;;;;;;;;;;5051340;28;1072;-73
2022/06/14 15:47:16;;;;;;;;;;;;;;;;;;5049983;28;1973;-72
2022/06/14 15:49:44;;;;;;;;;;;;;;;;;;5051274;28;1289;-73
2022/06/14 15:52:14;;;;;;;;;;;;;;;;;;5033183;28;1183;-71
2022/06/14 15:54:40;;;;;;;;;;;;;;;;;;5050687;28;687;-73
2022/06/14 15:57:06;;;;;;;;;;;;;;;;;;5050345;28;1076;-73
2022/06/14 15:59:35;;;;;;;;;;;;;;;;;;5051273;28;1432;-73
2022/06/14 16:02:01;;;;;;;;;;;;;;;;;;5050827;28;1111;-72
2022/06/14 16:04:29;;;;;;;;;;;;;;;;;;5050685;28;1054;-73
2022/06/14 16:06:56;;;;;;;;;;;;;;;;;;5051018;28;1978;-73
2022/06/14 16:09:26;;;;;;;;;;;;;;;;;;5051350;28;1419;-72
2022/06/14 16:11:54;;;;;;;;;;;;;;;;;;5050509;28;1049;-72
2022/06/14 16:14:20;;;;;;;;;;;;;;;;;;5051659;28;885;-72
2022/06/14 16:17:01;;;;;;;;;;;;;;;;;;5051508;28;842;-72
2022/06/14 16:19:30;;;;;;;;;;;;;;;;;;5051293;28;1427;-72
2022/06/14 16:21:58;;;;;;;;;;;;;;;;;;5033590;28;811;-72
2022/06/14 16:24:25;;;;;;;;;;;;;;;;;;5051203;28;1067;-72
2022/06/14 16:26:53;;;;;;;;;;;;;;;;;;5051012;28;1967;-72
2022/06/14 16:29:20;;;;;;;;;;;;;;;;;;5051356;28;1311;-73
2022/06/14 16:31:50;;;;;;;;;;;;;;;;;;5051196;28;1084;-74
2022/06/14 16:34:18;;;;;;;;;;;;;;;;;;5050972;28;937;-72
2022/06/14 16:36:45;;;;;;;;;;;;;;;;;;5050969;28;1154;-73
2022/06/14 16:39:14;;;;;;;;;;;;;;;;;;5051113;28;1344;-73
2022/06/14 16:41:43;;;;;;;;;;;;;;;;;;5051158;28;1084;-73
2022/06/14 16:44:11;;;;;;;;;;;;;;;;;;5050736;28;1064;-72
2022/06/14 16:46:39;;;;;;;;;;;;;;;;;;5050890;28;1075;-73
2022/06/14 16:49:12;;;;;;;;;;;;;;;;;;5050762;28;1389;-73
2022/06/14 16:51:39;;;;;;;;;;;;;;;;;;5051152;28;795;-73
2022/06/14 16:54:08;;;;;;;;;;;;;;;;;;5050738;28;1179;-74
2022/06/14 16:56:35;;;;;;;;;;;;;;;;;;5050645;28;1060;-74
2022/06/14 16:59:02;;;;;;;;;;;;;;;;;;5049798;28;1390;-73
2022/06/14 17:01:30;;;;;;;;;;;;;;;;;;5050690;28;909;-74
2022/06/14 17:03:57;;;;;;;;;;;;;;;;;;5050726;28;1072;-74
2022/06/14 17:06:30;;;;;;;;;;;;;;;;;;5050327;28;1099;-74
2022/06/14 17:09:00;;;;;;;;;;;;;;;;;;5050747;28;1990;-73
2022/06/14 17:11:27;;;;;;;;;;;;;;;;;;5050795;28;1068;-74
2022/06/14 17:13:54;;;;;;;;;;;;;;;;;;5050761;28;1099;-74
2022/06/14 17:16:23;;;;;;;;;;;;;;;;;;5050595;28;1131;-73
2022/06/14 17:18:50;;;;;;;;;;;;;;;;;;5050074;28;1510;-73
2022/06/14 17:21:20;;;;;;;;;;;;;;;;;;5032679;28;1299;-73
2022/06/14 17:23:48;;;;;;;;;;;;;;;;;;5050525;28;945;-73
2022/06/14 17:31:45;;;;;;;;;;;;;;;;;;5032474;28;745;-73
2022/06/14 17:34:12;;;;;;;;;;;;;;;;;;5052189;28;928;-73
2022/06/14 17:36:40;;;;;;;;;;;;;;;;;;5051805;28;1072;-72
2022/06/14 17:39:09;;;;;;;;;;;;;;;;;;5032248;28;1486;-71
2022/06/14 17:41:36;;;;;;;;;;;;;;;;;;5054789;28;1446;-72
2022/06/14 17:44:05;;;;;;;;;;;;;;;;;;5061768;28;1346;-72
2022/06/14 17:46:35;;;;;;;;;;;;;;;;;;5063896;28;1375;-71